createdAt,value
2018-03-26T00:01:16.085Z,30.00
2018-03-26T00:03:43.634Z,28.57
2018-03-26T00:06:11.217Z,30.03
2018-03-26T00:08:38.689Z,28.97
2018-03-26T00:11:06.143Z,29.80
2018-03-26T00:13:33.616Z,32.20
2018-03-26T00:16:01.071Z,27.93
2018-03-26T00:18:28.546Z,30.73
2018-03-26T00:20:55.995Z,31.13
2018-03-26T00:23:23.469Z,26.77
2018-03-26T00:25:50.935Z,29.00
2018-03-26T00:28:18.401Z,29.90
2018-03-26T00:30:45.871Z,29.73
2018-03-26T00:33:13.327Z,28.87
2018-03-26T00:35:40.803Z,27.57
2018-03-26T00:38:08.267Z,27.93
2018-03-26T00:40:35.736Z,30.67
2018-03-26T00:43:03.982Z,29.70
2018-03-26T00:45:31.461Z,27.43
2018-03-26T00:47:58.931Z,30.43
2018-03-26T00:50:26.396Z,32.20
2018-03-26T00:52:53.851Z,29.90
2018-03-26T00:55:21.323Z,27.57
2018-03-26T00:57:48.787Z,30.00
2018-03-26T01:00:16.260Z,30.87
2018-03-26T01:02:43.728Z,30.83
2018-03-26T01:05:11.191Z,29.17
2018-03-26T01:07:38.658Z,28.13
2018-03-26T01:10:06.131Z,25.40
2018-03-26T01:12:34.375Z,32.40
2018-03-26T01:15:01.868Z,29.00
2018-03-26T01:17:29.339Z,31.77
2018-03-26T01:19:56.795Z,28.47
2018-03-26T01:22:24.261Z,27.90
2018-03-26T01:24:51.728Z,31.37
2018-03-26T01:27:19.262Z,28.53
2018-03-26T01:29:46.672Z,29.47
2018-03-26T01:32:14.148Z,27.07
2018-03-26T01:34:41.615Z,27.50
2018-03-26T01:37:09.091Z,27.20
2018-03-26T01:39:37.319Z,28.33
2018-03-26T01:42:04.782Z,30.37
2018-03-26T01:44:32.243Z,25.37
2018-03-26T01:47:00.498Z,27.60
2018-03-26T01:49:27.959Z,26.77
2018-03-26T01:51:55.434Z,27.50
2018-03-26T01:54:22.907Z,29.17
2018-03-26T01:56:50.367Z,25.80
2018-03-26T01:59:17.836Z,29.87
2018-03-26T02:01:45.291Z,25.67
2018-03-26T02:04:12.763Z,25.60
2018-03-26T02:06:40.249Z,29.87
2018-03-26T02:09:07.715Z,30.37
2018-03-26T02:11:35.183Z,27.70
2018-03-26T02:14:02.677Z,28.07
2018-03-26T02:16:30.128Z,31.07
2018-03-26T02:18:57.591Z,30.27
2018-03-26T02:21:25.070Z,28.97
2018-03-26T02:23:52.534Z,31.37
2018-03-26T02:26:19.988Z,27.17
2018-03-26T02:28:47.482Z,28.70
2018-03-26T02:31:14.943Z,26.27
2018-03-26T02:33:42.407Z,28.83
2018-03-26T02:36:09.882Z,29.47
2018-03-26T02:38:38.109Z,33.17
2018-03-26T02:41:05.594Z,26.53
2018-03-26T02:43:33.059Z,26.23
2018-03-26T02:46:00.542Z,27.83
2018-03-26T02:48:28.018Z,33.27
2018-03-26T02:50:55.488Z,27.60
2018-03-26T02:53:22.963Z,26.63
2018-03-26T02:55:50.429Z,24.97
2018-03-26T02:58:17.889Z,28.50
2018-03-26T03:00:45.366Z,27.20
2018-03-26T03:03:12.819Z,24.67
2018-03-26T03:05:40.305Z,27.60
2018-03-26T03:08:08.537Z,24.43
2018-03-26T03:10:36.062Z,28.93
2018-03-26T03:13:03.474Z,31.67
2018-03-26T03:15:30.949Z,27.90
2018-03-26T03:17:58.411Z,28.07
2018-03-26T03:20:25.897Z,30.23
2018-03-26T03:22:53.361Z,25.60
2018-03-26T03:25:20.824Z,31.77
2018-03-26T03:27:48.283Z,34.57
2018-03-26T03:30:15.743Z,29.97
2018-03-26T03:32:43.204Z,26.43
2018-03-26T03:35:10.655Z,33.57
2018-03-26T03:37:38.132Z,32.00
2018-03-26T03:40:05.596Z,30.17
2018-03-26T03:42:33.837Z,29.70
2018-03-26T03:45:01.302Z,30.47
2018-03-26T03:47:28.767Z,32.77
2018-03-26T03:49:56.234Z,32.90
2018-03-26T03:52:23.737Z,29.07
2018-03-26T03:54:51.208Z,31.57
2018-03-26T03:57:18.688Z,30.80
2018-03-26T03:59:46.148Z,29.93
2018-03-26T04:02:13.616Z,32.13
2018-03-26T04:04:41.067Z,32.77
2018-03-26T04:07:08.576Z,33.57
2018-03-26T04:09:36.032Z,32.93
2018-03-26T04:12:03.488Z,31.13
2018-03-26T04:14:30.985Z,29.90
2018-03-26T04:16:58.439Z,34.13
2018-03-26T04:19:25.916Z,33.43
2018-03-26T04:21:53.367Z,31.33
2018-03-26T04:24:20.836Z,30.80
2018-03-26T04:26:48.293Z,29.53
2018-03-26T04:29:15.763Z,32.77
2018-03-26T04:31:43.232Z,34.87
2018-03-26T04:34:10.738Z,42.03
2018-03-26T04:36:38.175Z,33.60
2018-03-26T04:39:05.651Z,30.97
2018-03-26T04:41:33.103Z,30.43
2018-03-26T04:44:00.568Z,31.37
2018-03-26T04:46:28.028Z,31.03
2018-03-26T04:48:55.504Z,34.73
2018-03-26T04:51:22.964Z,32.60
2018-03-26T04:53:50.448Z,31.07
2018-03-26T04:56:17.907Z,35.80
2018-03-26T04:58:45.387Z,34.10
2018-03-26T05:01:12.847Z,31.50
2018-03-26T05:03:40.303Z,32.73
2018-03-26T05:06:07.783Z,35.90
2018-03-26T05:08:35.239Z,35.13
2018-03-26T05:11:02.715Z,32.20
2018-03-26T05:13:30.176Z,50.63
2018-03-26T05:15:57.642Z,43.33
2018-03-26T05:18:25.865Z,50.90
2018-03-26T05:20:53.345Z,53.83
2018-03-26T05:23:20.807Z,40.57
2018-03-26T05:25:48.264Z,35.50
2018-03-26T05:28:15.731Z,43.17
2018-03-26T05:30:43.192Z,42.60
2018-03-26T05:33:10.647Z,36.47
2018-03-26T05:35:38.120Z,43.03
2018-03-26T05:38:05.584Z,39.73
2018-03-26T05:40:33.334Z,40.67
2018-03-26T05:43:00.767Z,39.10
2018-03-26T05:45:28.240Z,38.27
2018-03-26T05:47:55.700Z,40.70
2018-03-26T05:50:23.163Z,36.17
2018-03-26T05:52:50.626Z,37.87
2018-03-26T05:55:18.739Z,42.90
2018-03-26T05:57:46.220Z,39.80
2018-03-26T06:00:13.688Z,37.10
2018-03-26T06:02:41.147Z,37.90
2018-03-26T06:05:08.604Z,36.73
2018-03-26T06:07:36.079Z,40.20
2018-03-26T06:10:04.312Z,43.43
2018-03-26T06:12:32.360Z,44.03
2018-03-26T06:14:59.833Z,38.33
2018-03-26T06:17:27.299Z,34.83
2018-03-26T06:19:54.757Z,33.87
2018-03-26T06:22:22.228Z,33.20
2018-03-26T06:24:49.696Z,33.70
2018-03-26T06:27:17.168Z,30.83
2018-03-26T06:29:44.628Z,33.33
2018-03-26T06:32:12.111Z,41.23
2018-03-26T06:34:39.585Z,32.83
2018-03-26T06:37:21.957Z,34.93
2018-03-26T06:39:49.403Z,35.40
2018-03-26T06:42:16.867Z,35.47
2018-03-26T06:44:44.328Z,33.07
2018-03-26T06:47:11.798Z,29.93
2018-03-26T06:49:39.261Z,37.87
2018-03-26T06:52:06.747Z,36.40
2018-03-26T06:54:34.205Z,39.17
2018-03-26T06:57:01.721Z,35.43
2018-03-26T06:59:29.207Z,39.70
2018-03-26T07:01:56.676Z,39.67
2018-03-26T07:04:24.224Z,63.30
2018-03-26T07:06:51.683Z,48.37
2018-03-26T07:09:19.151Z,36.93
2018-03-26T07:11:46.636Z,43.83
2018-03-26T07:14:14.118Z,42.70
2018-03-26T07:16:41.586Z,51.73
2018-03-26T07:19:09.069Z,48.57
2018-03-26T07:21:36.538Z,46.70
2018-03-26T07:24:04.013Z,52.33
2018-03-26T07:26:31.468Z,47.60
2018-03-26T07:28:59.000Z,42.23
2018-03-26T07:31:26.418Z,49.03
2018-03-26T07:33:53.902Z,38.30
2018-03-26T07:36:21.365Z,43.47
2018-03-26T07:38:48.831Z,43.60
2018-03-26T07:41:16.326Z,44.10
2018-03-26T07:43:43.810Z,42.70
2018-03-26T07:46:11.265Z,44.07
2018-03-26T07:48:38.784Z,44.37
2018-03-26T07:51:06.269Z,41.27
2018-03-26T07:53:33.759Z,43.63
2018-03-26T07:56:01.244Z,42.87
2018-03-26T07:58:28.704Z,39.00
2018-03-26T08:00:56.220Z,39.27
2018-03-26T08:03:23.711Z,42.73
2018-03-26T08:05:51.180Z,45.30
2018-03-26T08:08:18.639Z,49.37
2018-03-26T08:10:46.141Z,41.87
2018-03-26T08:13:13.607Z,42.90
2018-03-26T08:15:41.100Z,44.33
2018-03-26T08:18:08.563Z,44.53
2018-03-26T08:20:36.044Z,43.07
2018-03-26T08:23:03.500Z,46.57
2018-03-26T08:25:31.752Z,48.53
2018-03-26T08:27:59.994Z,45.87
2018-03-26T08:30:27.464Z,51.23
2018-03-26T08:32:54.950Z,48.27
2018-03-26T08:35:22.424Z,50.27
2018-03-26T08:37:50.655Z,45.67
2018-03-26T08:40:18.132Z,53.73
2018-03-26T08:42:45.627Z,48.30
2018-03-26T08:45:13.298Z,51.60
2018-03-26T08:47:40.778Z,40.50
2018-03-26T08:50:08.407Z,43.73
2018-03-26T08:52:35.726Z,43.27
2018-03-26T08:55:03.192Z,45.83
2018-03-26T08:57:30.682Z,42.20
2018-03-26T08:59:58.143Z,52.07
2018-03-26T09:02:25.612Z,45.43
2018-03-26T09:04:53.071Z,41.93
2018-03-26T09:07:20.539Z,45.67
2018-03-26T09:09:48.023Z,45.63
2018-03-26T09:12:15.495Z,41.50
2018-03-26T09:14:42.966Z,42.43
2018-03-26T09:17:10.452Z,47.17
2018-03-26T09:19:37.915Z,43.20
2018-03-26T09:22:05.411Z,44.30
2018-03-26T09:24:32.879Z,40.87
2018-03-26T09:27:01.124Z,45.67
2018-03-26T09:29:28.591Z,42.73
2018-03-26T09:31:56.072Z,42.43
2018-03-26T09:34:23.556Z,44.40
2018-03-26T09:36:51.036Z,41.17
2018-03-26T09:39:18.507Z,46.50
2018-03-26T09:41:45.972Z,46.27
2018-03-26T09:44:13.450Z,39.20
2018-03-26T09:46:41.692Z,40.17
2018-03-26T09:49:09.160Z,41.97
2018-03-26T09:51:36.629Z,42.03
2018-03-26T09:54:04.101Z,40.00
2018-03-26T09:56:31.624Z,43.57
2018-03-26T09:58:59.195Z,40.10
2018-03-26T10:01:32.484Z,42.03
2018-03-26T10:03:59.959Z,38.70
2018-03-26T10:06:27.435Z,40.90
2018-03-26T10:08:54.919Z,42.17
2018-03-26T10:11:22.395Z,42.20
2018-03-26T10:13:50.635Z,41.77
2018-03-26T10:16:18.103Z,44.23
2018-03-26T10:18:45.588Z,37.90
2018-03-26T10:21:13.073Z,42.10
2018-03-26T10:23:40.553Z,36.53
2018-03-26T10:26:08.021Z,37.17
2018-03-26T10:28:35.505Z,37.90
2018-03-26T10:31:02.975Z,39.57
2018-03-26T10:33:30.440Z,37.27
2018-03-26T10:35:57.912Z,38.07
2018-03-26T10:38:25.405Z,37.93
2018-03-26T10:40:52.972Z,39.73
2018-03-26T10:43:20.458Z,39.93
2018-03-26T10:45:47.934Z,42.00
2018-03-26T10:48:15.399Z,47.53
2018-03-26T10:50:42.871Z,36.83
2018-03-26T10:53:10.336Z,35.43
2018-03-26T10:55:37.821Z,39.50
2018-03-26T10:58:05.322Z,36.87
2018-03-26T11:00:32.818Z,40.70
2018-03-26T11:03:00.272Z,38.80
2018-03-26T11:05:27.800Z,38.67
2018-03-26T11:07:55.256Z,39.90
2018-03-26T11:10:22.727Z,35.27
2018-03-26T11:12:50.957Z,37.83
2018-03-26T11:15:18.424Z,39.10
2018-03-26T11:17:45.911Z,36.37
2018-03-26T11:20:13.380Z,40.93
2018-03-26T11:22:41.619Z,35.27
2018-03-26T11:25:09.078Z,42.67
2018-03-26T11:27:36.556Z,36.27
2018-03-26T11:30:04.017Z,39.40
2018-03-26T11:32:31.709Z,34.77
2018-03-26T11:34:59.166Z,33.87
2018-03-26T11:37:26.648Z,32.73
2018-03-26T11:39:54.118Z,34.63
2018-03-26T11:42:21.604Z,37.13
2018-03-26T11:44:49.067Z,37.47
2018-03-26T11:47:16.545Z,38.30
2018-03-26T11:49:44.053Z,32.37
2018-03-26T11:52:11.497Z,35.00
2018-03-26T11:54:38.971Z,32.50
2018-03-26T11:57:06.583Z,31.03
2018-03-26T11:59:34.060Z,32.63
2018-03-26T12:02:01.527Z,34.20
2018-03-26T12:04:29.008Z,32.10
2018-03-26T12:06:56.491Z,32.40
2018-03-26T12:09:23.980Z,36.07
2018-03-26T12:11:51.448Z,34.27
2018-03-26T12:14:18.915Z,34.07
2018-03-26T12:16:47.307Z,35.33
2018-03-26T12:19:14.806Z,35.67
2018-03-26T12:21:42.275Z,36.07
2018-03-26T12:24:21.471Z,39.37
2018-03-26T12:26:49.713Z,37.57
2018-03-26T12:29:37.824Z,38.43
2018-03-26T12:32:05.287Z,42.80
2018-03-26T12:34:53.452Z,39.10
2018-03-26T12:37:20.924Z,38.47
2018-03-26T12:39:48.392Z,37.87
2018-03-26T12:42:15.868Z,40.13
2018-03-26T12:44:55.076Z,39.80
2018-03-26T12:47:22.557Z,41.47
2018-03-26T12:49:50.757Z,44.97
2018-03-26T12:52:29.928Z,36.53
2018-03-26T12:54:57.408Z,40.00
2018-03-26T12:57:37.405Z,41.60
2018-03-26T13:00:04.914Z,39.70
2018-03-26T13:02:32.383Z,41.67
2018-03-26T13:04:59.860Z,46.87
2018-03-26T13:07:27.378Z,44.13
2018-03-26T13:09:54.881Z,45.17
2018-03-26T13:12:22.356Z,41.50
2018-03-26T13:14:49.849Z,43.53
2018-03-26T13:17:17.336Z,44.77
2018-03-26T13:19:45.560Z,46.90
2018-03-26T13:22:13.090Z,41.57
2018-03-26T13:24:40.576Z,41.47
2018-03-26T13:27:08.063Z,52.43
2018-03-26T13:29:35.534Z,42.37
2018-03-26T13:32:03.768Z,44.87
2018-03-26T13:34:31.237Z,41.60
2018-03-26T13:36:58.725Z,43.67
2018-03-26T13:39:26.192Z,47.67
2018-03-26T13:41:53.714Z,46.80
2018-03-26T13:44:21.152Z,50.13
2018-03-26T13:46:48.627Z,52.57
2018-03-26T13:49:16.135Z,45.93
2018-03-26T13:51:43.678Z,42.73
2018-03-26T13:54:11.993Z,44.03
2018-03-26T13:56:39.480Z,40.50
2018-03-26T13:59:07.002Z,40.93
2018-03-26T14:01:34.480Z,41.13
2018-03-26T14:04:01.995Z,38.20
2018-03-26T14:06:29.492Z,41.63
2018-03-26T14:09:08.665Z,40.57
2018-03-26T14:11:48.771Z,39.90
2018-03-26T14:14:28.034Z,47.17
2018-03-26T14:17:07.227Z,43.57
2018-03-26T14:19:34.702Z,40.97
2018-03-26T14:22:02.176Z,40.73
2018-03-26T14:24:29.650Z,38.23
2018-03-26T14:26:57.883Z,42.43
2018-03-26T14:29:25.361Z,52.40
2018-03-26T14:31:52.832Z,44.27
2018-03-26T14:34:20.316Z,44.60
2018-03-26T14:36:47.783Z,40.97
2018-03-26T14:39:15.279Z,45.17
2018-03-26T14:41:42.748Z,40.67
2018-03-26T14:44:10.222Z,39.63
2018-03-26T14:46:38.455Z,42.90
2018-03-26T14:49:05.975Z,39.70
2018-03-26T14:51:33.463Z,39.93
2018-03-26T14:54:01.024Z,38.30
2018-03-26T14:56:28.506Z,42.97
2018-03-26T14:58:55.968Z,38.90
2018-03-26T15:01:23.515Z,38.87
2018-03-26T15:03:56.670Z,37.10
2018-03-26T15:06:24.222Z,44.00
2018-03-26T15:08:51.708Z,43.97
2018-03-26T15:11:19.197Z,41.10
2018-03-26T15:13:46.800Z,44.93
2018-03-26T15:16:14.321Z,41.60
2018-03-26T15:18:41.817Z,43.07
2018-03-26T15:21:09.293Z,39.57
2018-03-26T15:23:36.770Z,41.63
2018-03-26T15:26:04.270Z,39.47
2018-03-26T15:28:31.792Z,39.60
2018-03-26T15:30:59.281Z,43.53
2018-03-26T15:33:27.533Z,43.80
2018-03-26T15:35:55.017Z,40.13
2018-03-26T15:38:23.297Z,40.23
2018-03-26T15:40:50.776Z,41.93
2018-03-26T15:43:18.433Z,43.03
2018-03-26T15:45:45.915Z,44.60
2018-03-26T15:48:13.419Z,42.87
2018-03-26T15:50:41.668Z,38.70
2018-03-26T15:53:09.135Z,40.23
2018-03-26T15:55:36.615Z,39.70
2018-03-26T15:58:04.116Z,38.63
2018-03-26T16:00:31.580Z,36.43
2018-03-26T16:03:04.774Z,34.73
2018-03-26T16:05:32.256Z,35.53
2018-03-26T16:07:59.736Z,37.63
2018-03-26T16:10:28.008Z,39.37
2018-03-26T16:12:55.506Z,35.27
2018-03-26T16:15:22.972Z,36.37
2018-03-26T16:17:50.488Z,32.97
2018-03-26T16:20:18.735Z,39.17
2018-03-26T16:22:46.220Z,35.47
2018-03-26T16:25:13.739Z,32.33
2018-03-26T16:27:41.259Z,34.20
2018-03-26T16:30:08.833Z,35.80
2018-03-26T16:32:36.330Z,35.80
2018-03-26T16:35:03.893Z,35.07
2018-03-26T16:37:32.177Z,34.70
2018-03-26T16:39:59.659Z,33.17
2018-03-26T16:42:27.996Z,36.60
2018-03-26T16:44:55.473Z,33.70
2018-03-26T16:47:22.965Z,34.17
2018-03-26T16:49:50.463Z,33.07
2018-03-26T16:52:17.958Z,34.83
2018-03-26T16:54:45.426Z,33.83
2018-03-26T16:57:12.923Z,32.43
2018-03-26T16:59:40.421Z,31.87
2018-03-26T17:02:07.895Z,32.70
2018-03-26T17:04:35.377Z,31.40
2018-03-26T17:07:02.865Z,34.17
2018-03-26T17:09:30.350Z,35.13
2018-03-26T17:11:57.827Z,33.40
2018-03-26T17:14:25.332Z,34.57
2018-03-26T17:16:52.874Z,36.33
2018-03-26T17:19:20.344Z,35.60
2018-03-26T17:21:47.812Z,33.27
2018-03-26T17:24:15.321Z,33.57
2018-03-26T17:26:42.796Z,32.17
2018-03-26T17:29:10.274Z,35.13
2018-03-26T17:31:37.761Z,33.10
2018-03-26T17:34:05.227Z,34.63
2018-03-26T17:36:33.481Z,33.27
2018-03-26T17:39:00.961Z,29.67
2018-03-26T17:41:28.444Z,31.53
2018-03-26T17:43:55.944Z,31.30
2018-03-26T17:46:23.438Z,30.03
2018-03-26T17:48:50.992Z,31.07
2018-03-26T17:51:19.236Z,32.93
2018-03-26T17:53:46.724Z,35.23
2018-03-26T17:56:14.206Z,32.43
2018-03-26T17:58:41.679Z,31.97
2018-03-26T18:01:09.165Z,32.53
2018-03-26T18:03:36.663Z,32.27
2018-03-26T18:06:04.140Z,31.73
2018-03-26T18:08:31.626Z,31.83
2018-03-26T18:10:59.116Z,31.67
2018-03-26T18:13:26.606Z,34.97
2018-03-26T18:15:54.106Z,33.67
2018-03-26T18:18:21.571Z,34.03
2018-03-26T18:20:49.067Z,36.93
2018-03-26T18:23:16.552Z,32.93
2018-03-26T18:25:44.040Z,37.50
2018-03-26T18:28:11.524Z,32.50
2018-03-26T18:30:39.789Z,33.70
2018-03-26T18:33:07.273Z,34.37
2018-03-26T18:35:34.748Z,37.17
2018-03-26T18:38:02.254Z,36.47
2018-03-26T18:40:29.715Z,33.63
2018-03-26T18:42:57.192Z,32.73
2018-03-26T18:45:25.432Z,33.10
2018-03-26T18:47:52.908Z,33.77
2018-03-26T18:50:20.371Z,34.83
2018-03-26T18:52:47.860Z,35.83
2018-03-26T18:55:15.320Z,37.23
2018-03-26T18:57:42.812Z,33.03
2018-03-26T19:00:10.281Z,35.40
2018-03-26T19:02:37.755Z,33.33
2018-03-26T19:05:06.002Z,36.47
2018-03-26T19:07:33.476Z,36.20
2018-03-26T19:10:00.955Z,42.77
2018-03-26T19:12:28.444Z,39.07
2018-03-26T19:14:55.915Z,43.13
2018-03-26T19:17:23.384Z,44.90
2018-03-26T19:19:50.876Z,35.17
2018-03-26T19:22:19.110Z,37.03
2018-03-26T19:24:46.600Z,38.53
2018-03-26T19:27:14.081Z,39.67
2018-03-26T19:29:41.565Z,38.47
2018-03-26T19:32:09.031Z,43.57
2018-03-26T19:34:36.519Z,40.30
2018-03-26T19:37:03.989Z,41.03
2018-03-26T19:39:31.527Z,39.03
2018-03-26T19:41:58.942Z,41.27
2018-03-26T19:44:26.416Z,40.20
2018-03-26T19:46:53.872Z,42.00
2018-03-26T19:49:21.354Z,39.63
2018-03-26T19:51:48.831Z,42.97
2018-03-26T19:54:16.311Z,41.20
2018-03-26T19:56:43.775Z,38.33
2018-03-26T19:59:11.258Z,42.47
2018-03-26T20:01:38.731Z,39.43
2018-03-26T20:04:06.249Z,44.17
2018-03-26T20:06:33.717Z,40.23
2018-03-26T20:09:01.196Z,41.03
2018-03-26T20:11:28.676Z,45.23
2018-03-26T20:13:56.156Z,40.50
2018-03-26T20:16:24.408Z,43.23
2018-03-26T20:18:51.877Z,46.37
2018-03-26T20:21:19.352Z,42.07
2018-03-26T20:23:46.823Z,40.30
2018-03-26T20:26:14.315Z,39.67
2018-03-26T20:28:41.776Z,40.90
2018-03-26T20:31:09.254Z,39.83
2018-03-26T20:33:36.733Z,40.47
2018-03-26T20:36:05.001Z,42.67
2018-03-26T20:38:32.503Z,42.40
2018-03-26T20:40:59.969Z,43.33
2018-03-26T20:43:27.433Z,44.90
2018-03-26T20:45:54.908Z,44.60
2018-03-26T20:48:22.365Z,41.87
2018-03-26T20:50:49.839Z,39.07
2018-03-26T20:53:17.313Z,45.20
2018-03-26T20:55:45.539Z,44.10
2018-03-26T20:58:13.012Z,42.00
2018-03-26T21:00:40.480Z,42.90
2018-03-26T21:03:07.972Z,43.70
2018-03-26T21:05:35.449Z,42.20
2018-03-26T21:08:02.925Z,50.60
2018-03-26T21:10:30.394Z,42.10
2018-03-26T21:12:57.875Z,43.73
2018-03-26T21:15:25.336Z,45.23
2018-03-26T21:17:52.813Z,42.83
2018-03-26T21:20:21.053Z,40.43
2018-03-26T21:22:48.544Z,44.83
2018-03-26T21:25:16.004Z,41.20
2018-03-26T21:27:43.488Z,44.13
2018-03-26T21:30:10.950Z,40.30
2018-03-26T21:32:38.469Z,42.40
2018-03-26T21:35:06.687Z,42.10
2018-03-26T21:37:34.181Z,41.77
2018-03-26T21:40:01.686Z,43.80
2018-03-26T21:42:29.155Z,44.50
2018-03-26T21:44:56.639Z,39.60
2018-03-26T21:47:24.108Z,46.67
2018-03-26T21:49:51.590Z,50.33
2018-03-26T21:52:19.815Z,41.87
2018-03-26T21:54:47.288Z,46.70
2018-03-26T21:57:14.771Z,43.07
2018-03-26T21:59:42.268Z,45.03
2018-03-26T22:02:09.736Z,44.87
2018-03-26T22:04:37.214Z,42.03
2018-03-26T22:07:04.675Z,44.63
2018-03-26T22:09:32.164Z,50.27
2018-03-26T22:11:59.640Z,44.77
2018-03-26T22:14:27.104Z,47.23
2018-03-26T22:16:54.565Z,45.80
2018-03-26T22:19:22.040Z,43.67
2018-03-26T22:21:49.499Z,49.07
2018-03-26T22:24:16.974Z,43.07
2018-03-26T22:26:44.435Z,52.70
2018-03-26T22:29:11.903Z,47.60
2018-03-26T22:31:39.367Z,49.73
2018-03-26T22:34:06.832Z,44.33
2018-03-26T22:36:34.288Z,42.67
2018-03-26T22:39:01.752Z,46.03
2018-03-26T22:41:29.232Z,42.60
2018-03-26T22:43:56.732Z,42.13
2018-03-26T22:46:24.213Z,46.77
2018-03-26T22:48:51.672Z,47.57
2018-03-26T22:51:19.134Z,52.40
2018-03-26T22:53:46.593Z,45.93
2018-03-26T22:56:14.064Z,46.80
2018-03-26T22:58:41.548Z,51.23
2018-03-26T23:01:09.023Z,49.53
2018-03-26T23:03:36.486Z,48.77
2018-03-26T23:06:03.959Z,43.83
2018-03-26T23:08:31.432Z,48.03
2018-03-26T23:10:59.667Z,50.20
2018-03-26T23:13:27.139Z,51.20
2018-03-26T23:15:54.608Z,45.97
2018-03-26T23:18:22.080Z,49.07
2018-03-26T23:20:49.567Z,49.07
2018-03-26T23:23:17.032Z,46.07
2018-03-26T23:25:44.504Z,43.23
2018-03-26T23:28:11.981Z,47.17
2018-03-26T23:30:39.463Z,46.50
2018-03-26T23:33:07.716Z,43.40
2018-03-26T23:35:35.196Z,45.43
2018-03-26T23:38:02.665Z,47.97
2018-03-26T23:40:30.137Z,44.67
2018-03-26T23:42:57.603Z,44.83
2018-03-26T23:45:25.067Z,45.80
2018-03-26T23:47:52.531Z,43.73
2018-03-26T23:50:20.004Z,45.63
2018-03-26T23:52:47.460Z,45.60
2018-03-26T23:55:14.941Z,42.77
2018-03-26T23:57:43.175Z,46.90
